createdAt,value
2022-08-04T00:00:11.299Z,3.53
2022-08-04T00:02:53.611Z,3.25
2022-08-04T00:05:57.961Z,3.50
2022-08-04T00:08:30.838Z,3.40
2022-08-04T00:11:00.501Z,3.40
2022-08-04T00:13:32.211Z,3.05
2022-08-04T00:16:04.577Z,3.70
2022-08-04T00:18:40.062Z,3.63
2022-08-04T00:21:10.412Z,3.72
2022-08-04T00:24:11.426Z,3.15
2022-08-04T00:26:33.598Z,3.50
2022-08-04T00:29:01.327Z,3.38
2022-08-04T00:31:54.117Z,3.38
2022-08-04T00:34:16.801Z,3.60
2022-08-04T00:36:44.511Z,3.40
2022-08-04T00:39:13.494Z,3.70
2022-08-04T00:42:03.672Z,3.90
2022-08-04T00:45:02.733Z,3.95
2022-08-04T00:47:52.550Z,3.45
2022-08-04T00:50:32.652Z,3.90
2022-08-04T00:53:16.809Z,3.78
2022-08-04T00:56:14.093Z,3.85
2022-08-04T00:58:51.379Z,4.05
2022-08-04T01:01:24.120Z,3.83
2022-08-04T01:04:35.898Z,4.03
2022-08-04T01:07:14.718Z,4.32
2022-08-04T01:10:07.912Z,4.03
2022-08-04T01:13:01.318Z,4.20
2022-08-04T01:15:59.763Z,4.30
2022-08-04T01:18:50.162Z,3.78
2022-08-04T01:21:56.429Z,4.05
2022-08-04T01:24:42.441Z,4.60
2022-08-04T01:27:26.837Z,3.95
2022-08-04T01:29:59.329Z,4.32
2022-08-04T01:32:50.324Z,4.05
2022-08-04T01:35:47.911Z,4.60
2022-08-04T01:38:33.780Z,4.20
2022-08-04T01:41:05.647Z,4.20
2022-08-04T01:43:40.809Z,4.72
2022-08-04T01:46:11.803Z,4.53
2022-08-04T01:48:40.548Z,4.85
2022-08-04T01:51:10.065Z,4.33
2022-08-04T01:53:39.907Z,4.53
2022-08-04T01:56:09.389Z,4.50
2022-08-04T01:58:38.700Z,5.10
2022-08-04T02:01:09.479Z,5.22
2022-08-04T02:04:20.715Z,4.88
2022-08-04T02:07:22.756Z,4.93
2022-08-04T02:10:08.625Z,5.13
2022-08-04T02:12:55.816Z,5.25
2022-08-04T02:15:28.651Z,5.45
2022-08-04T02:17:56.025Z,5.18
2022-08-04T02:20:29.427Z,4.78
2022-08-04T02:23:00.818Z,5.57
2022-08-04T02:25:32.621Z,6.20
2022-08-04T02:28:16.217Z,5.10
2022-08-04T02:31:08.911Z,5.70
2022-08-04T02:33:42.282Z,5.22
2022-08-04T02:36:27.783Z,5.13
2022-08-04T02:39:04.521Z,5.40
2022-08-04T02:41:32.594Z,5.20
2022-08-04T02:44:03.041Z,5.35
2022-08-04T02:46:31.876Z,5.20
2022-08-04T02:49:01.668Z,5.57
2022-08-04T02:51:30.910Z,5.53
2022-08-04T02:53:59.805Z,5.15
2022-08-04T02:56:30.500Z,5.80
2022-08-04T02:59:03.336Z,5.72
2022-08-04T03:01:31.487Z,5.63
2022-08-04T03:04:24.715Z,5.88
2022-08-04T03:07:07.705Z,5.60
2022-08-04T03:10:25.347Z,5.65
2022-08-04T03:13:23.646Z,6.38
2022-08-04T03:16:05.978Z,6.03
2022-08-04T03:18:51.428Z,5.80
2022-08-04T03:21:27.704Z,6.30
2022-08-04T03:24:43.525Z,6.32
2022-08-04T03:27:25.583Z,6.05
2022-08-04T03:30:01.237Z,6.18
2022-08-04T03:32:46.404Z,6.13
2022-08-04T03:35:28.588Z,6.20
2022-08-04T03:38:36.778Z,6.60
2022-08-04T03:41:50.912Z,6.22
2022-08-04T03:46:46.955Z,6.13
2022-08-04T03:49:25.595Z,6.10
2022-08-04T03:52:23.190Z,6.40
2022-08-04T03:55:11.698Z,6.03
2022-08-04T03:57:57.304Z,6.32
2022-08-04T04:00:36.134Z,6.72
2022-08-04T04:03:41.135Z,6.50
2022-08-04T04:06:10.893Z,6.80
2022-08-04T04:08:47.966Z,6.53
2022-08-04T04:11:28.898Z,6.50
2022-08-04T04:14:17.723Z,6.65
2022-08-04T04:17:03.492Z,6.85
2022-08-04T04:19:58.527Z,6.47
2022-08-04T04:23:03.349Z,7.50
2022-08-04T04:25:48.505Z,7.68
2022-08-04T04:28:45.795Z,6.88
2022-08-04T04:31:34.715Z,7.63
2022-08-04T04:34:34.067Z,6.88
2022-08-04T04:37:01.194Z,7.05
2022-08-04T04:40:05.966Z,7.00
2022-08-04T04:43:02.476Z,7.10
2022-08-04T04:46:10.259Z,7.40
2022-08-04T04:48:53.685Z,7.65
2022-08-04T04:51:32.114Z,7.22
2022-08-04T04:54:08.873Z,7.65
2022-08-04T04:56:42.251Z,7.65
2022-08-04T04:59:13.314Z,7.55
2022-08-04T05:01:55.284Z,8.00
2022-08-04T05:04:51.613Z,7.63
2022-08-04T05:07:37.154Z,7.65
2022-08-04T05:10:33.127Z,8.00
2022-08-04T05:14:35.876Z,7.57
2022-08-04T05:19:03.845Z,7.22
2022-08-04T05:21:30.887Z,7.43
2022-08-04T05:24:06.793Z,7.75
2022-08-04T05:26:39.992Z,7.32
2022-08-04T05:29:11.915Z,7.63
2022-08-04T05:31:50.283Z,7.95
2022-08-04T05:34:29.217Z,8.13
2022-08-04T05:37:00.457Z,8.00
2022-08-04T05:39:36.420Z,7.97
2022-08-04T05:42:07.463Z,8.27
2022-08-04T05:44:35.314Z,8.10
2022-08-04T05:47:04.444Z,7.43
2022-08-04T05:49:33.160Z,7.90
2022-08-04T05:52:02.233Z,8.38
2022-08-04T05:54:32.483Z,7.68
2022-08-04T05:57:00.129Z,7.55
2022-08-04T05:59:29.568Z,7.47
2022-08-04T06:01:59.207Z,7.88
2022-08-04T06:04:37.547Z,7.50
2022-08-04T06:07:05.499Z,7.95
2022-08-04T06:09:32.966Z,7.53
2022-08-04T06:12:21.338Z,7.57
2022-08-04T06:14:53.194Z,7.78
2022-08-04T06:18:33.752Z,7.60
2022-08-04T06:20:22.837Z,7.05
2022-08-04T06:22:58.943Z,6.97
2022-08-04T06:25:31.435Z,6.80
2022-08-04T06:27:59.927Z,7.18
2022-08-04T06:30:28.639Z,7.85
2022-08-04T06:33:03.420Z,7.15
2022-08-04T06:35:33.284Z,6.95
2022-08-04T06:38:02.002Z,6.90
2022-08-04T06:40:33.395Z,6.80
2022-08-04T06:43:06.769Z,6.75
2022-08-04T06:45:37.372Z,6.30
2022-08-04T06:48:06.731Z,5.85
2022-08-04T06:51:24.794Z,6.32
2022-08-04T06:53:26.678Z,6.35
2022-08-04T06:55:56.310Z,6.00
2022-08-04T06:58:25.444Z,6.03
2022-08-04T07:00:55.128Z,5.65
2022-08-04T07:03:22.833Z,5.72
2022-08-04T07:05:52.157Z,5.68
2022-08-04T07:08:20.565Z,5.35
2022-08-04T07:10:48.971Z,5.80
2022-08-04T07:13:17.285Z,5.45
2022-08-04T07:15:46.194Z,5.82
2022-08-04T07:18:13.404Z,5.13
2022-08-04T07:20:45.407Z,5.28
2022-08-04T07:23:21.602Z,5.28
2022-08-04T07:25:59.738Z,5.10
2022-08-04T07:28:40.090Z,5.00
2022-08-04T07:31:11.286Z,5.18
2022-08-04T07:34:16.447Z,5.10
2022-08-04T07:36:50.366Z,4.90
2022-08-04T07:39:27.406Z,5.25
2022-08-04T07:41:57.333Z,5.07
2022-08-04T07:44:25.492Z,4.50
2022-08-04T07:46:52.967Z,4.75
2022-08-04T07:49:55.601Z,4.80
2022-08-04T07:52:09.066Z,4.85
2022-08-04T07:54:37.155Z,5.00
2022-08-04T07:57:04.617Z,4.63
2022-08-04T07:59:33.147Z,4.60
2022-08-04T08:02:01.724Z,4.95
2022-08-04T08:04:29.926Z,4.72
2022-08-04T08:07:00.142Z,5.00
2022-08-04T08:09:27.411Z,4.70
2022-08-04T08:12:38.720Z,5.15
2022-08-04T08:14:43.854Z,4.35
2022-08-04T08:17:10.895Z,4.60
2022-08-04T08:19:38.630Z,4.70
2022-08-04T08:22:06.189Z,4.32
2022-08-04T08:24:36.743Z,4.55
2022-08-04T08:27:05.008Z,4.63
2022-08-04T08:29:34.718Z,4.75
2022-08-04T08:32:08.126Z,4.60
2022-08-04T08:34:39.024Z,4.80
2022-08-04T08:37:30.966Z,4.00
2022-08-04T08:40:40.138Z,3.70
2022-08-04T08:44:05.904Z,4.03
2022-08-04T08:46:50.403Z,3.75
2022-08-04T08:50:00.474Z,3.45
2022-08-04T08:53:01.104Z,3.63
2022-08-04T08:55:52.535Z,3.33
2022-08-04T08:58:50.538Z,4.10
2022-08-04T09:01:42.509Z,3.50
2022-08-04T09:04:59.778Z,3.42
2022-08-04T09:07:53.130Z,3.20
2022-08-04T09:10:42.364Z,3.20
2022-08-04T09:13:22.152Z,3.88
2022-08-04T09:16:02.962Z,3.55
2022-08-04T09:22:01.397Z,3.70
2022-08-04T09:24:45.640Z,3.28
2022-08-04T09:27:52.373Z,4.28
2022-08-04T09:30:28.092Z,3.40
2022-08-04T09:33:00.772Z,3.30
2022-08-04T09:36:12.526Z,3.53
2022-08-04T09:38:52.383Z,3.20
2022-08-04T09:41:49.188Z,2.70
2022-08-04T09:44:52.419Z,3.00
2022-08-04T09:47:21.223Z,2.90
2022-08-04T09:49:58.370Z,3.50
2022-08-04T09:52:44.317Z,2.95
2022-08-04T09:55:20.452Z,3.30
2022-08-04T09:57:50.220Z,3.65
2022-08-04T10:02:51.250Z,3.78
2022-08-04T10:05:26.005Z,4.10
2022-08-04T10:08:32.133Z,3.45
2022-08-04T10:11:22.290Z,3.90
2022-08-04T10:14:10.197Z,4.07
2022-08-04T10:17:10.972Z,4.03
2022-08-04T10:19:40.897Z,4.10
2022-08-04T10:26:03.628Z,3.75
2022-08-04T10:28:10.139Z,3.75
2022-08-04T10:30:41.009Z,3.72
2022-08-04T10:33:54.414Z,3.60
2022-08-04T10:36:26.912Z,3.28
2022-08-04T10:38:59.862Z,3.70
2022-08-04T10:41:30.720Z,3.75
2022-08-04T10:44:24.773Z,3.72
2022-08-04T10:46:57.547Z,3.35
2022-08-04T10:49:28.563Z,3.42
2022-08-04T10:52:21.085Z,3.60
2022-08-04T10:54:58.242Z,3.25
2022-08-04T10:57:41.043Z,3.70
2022-08-04T11:00:16.502Z,3.90
2022-08-04T11:02:52.817Z,3.30
2022-08-04T11:05:27.495Z,3.35
2022-08-04T11:08:02.059Z,3.72
2022-08-04T11:10:35.464Z,3.53
2022-08-04T11:13:06.727Z,3.53
2022-08-04T11:15:55.617Z,3.55
2022-08-04T11:18:49.912Z,3.38
2022-08-04T11:21:32.728Z,2.70
2022-08-04T11:24:06.916Z,2.97
2022-08-04T11:26:49.197Z,3.70
2022-08-04T11:29:42.473Z,3.60
2022-08-04T11:32:17.695Z,4.38
2022-08-04T11:34:53.244Z,3.88
2022-08-04T11:37:27.785Z,3.78
2022-08-04T11:40:09.698Z,4.03
2022-08-04T11:42:50.991Z,3.80
2022-08-04T11:45:25.203Z,3.70
2022-08-04T11:48:00.340Z,4.00
2022-08-04T11:50:38.485Z,3.50
2022-08-04T11:53:07.343Z,3.88
2022-08-04T11:56:08.341Z,4.05
2022-08-04T11:58:24.804Z,3.25
2022-08-04T12:00:58.471Z,3.22
2022-08-04T12:03:31.619Z,3.40
2022-08-04T12:06:15.679Z,3.47
2022-08-04T12:09:19.661Z,3.60
2022-08-04T12:11:55.245Z,3.70
2022-08-04T12:14:30.939Z,3.88
2022-08-04T12:17:05.223Z,3.35
2022-08-04T12:20:04.012Z,3.13
2022-08-04T12:22:44.199Z,3.30
2022-08-04T12:25:20.401Z,3.28
2022-08-04T12:27:56.104Z,3.50
2022-08-04T12:30:57.732Z,3.13
2022-08-04T12:34:03.506Z,3.22
2022-08-04T12:36:34.822Z,2.88
2022-08-04T12:41:40.676Z,3.53
2022-08-04T12:44:36.431Z,3.28
2022-08-04T12:47:28.292Z,3.58
2022-08-04T12:50:00.398Z,3.03
2022-08-04T12:55:19.341Z,3.40
2022-08-04T12:57:48.340Z,3.55
2022-08-04T13:00:32.232Z,3.13
2022-08-04T13:03:10.198Z,3.50
2022-08-04T13:05:40.382Z,3.50
2022-08-04T13:10:45.196Z,3.60
2022-08-04T13:13:17.412Z,3.58
2022-08-04T13:18:49.355Z,3.45
2022-08-04T13:21:23.271Z,3.10
2022-08-04T13:24:21.840Z,3.40
2022-08-04T13:27:03.672Z,3.50
2022-08-04T13:30:00.715Z,5.10
2022-08-04T13:30:23.937Z,3.20
2022-08-04T13:32:32.265Z,4.30
2022-08-04T13:35:02.416Z,3.97
2022-08-04T13:37:39.185Z,3.63
2022-08-04T13:40:10.236Z,3.92
2022-08-04T13:42:39.299Z,4.10
2022-08-04T13:45:09.120Z,6.67
2022-08-04T13:47:39.419Z,4.75
2022-08-04T13:50:37.356Z,4.53
2022-08-04T13:53:04.534Z,5.00
2022-08-04T13:55:34.359Z,4.68
2022-08-04T13:58:19.217Z,4.70
2022-08-04T14:01:06.086Z,5.22
2022-08-04T14:03:54.199Z,4.97
2022-08-04T14:06:28.156Z,5.07
2022-08-04T14:09:00.813Z,4.70
2022-08-04T14:12:10.892Z,5.15
2022-08-04T14:14:31.383Z,5.18
2022-08-04T14:17:17.145Z,4.70
2022-08-04T14:19:47.765Z,5.13
2022-08-04T14:22:27.091Z,4.47
2022-08-04T14:25:16.160Z,5.43
2022-08-04T14:27:55.725Z,4.70
2022-08-04T14:30:36.550Z,4.55
2022-08-04T14:34:02.816Z,4.78
2022-08-04T14:36:04.719Z,4.07
2022-08-04T14:38:53.677Z,4.47
2022-08-04T14:41:29.714Z,5.13
2022-08-04T14:44:03.817Z,4.35
2022-08-04T14:46:36.780Z,4.60
2022-08-04T14:49:10.478Z,4.47
2022-08-04T14:51:42.610Z,4.38
2022-08-04T14:54:17.653Z,4.57
2022-08-04T14:56:54.679Z,4.40
2022-08-04T14:59:21.961Z,4.55
2022-08-04T15:02:00.198Z,4.78
2022-08-04T15:04:30.035Z,5.03
2022-08-04T15:06:57.519Z,4.55
2022-08-04T15:09:25.691Z,4.22
2022-08-04T15:11:52.929Z,4.20
2022-08-04T15:14:36.724Z,5.93
2022-08-04T15:17:12.067Z,4.40
2022-08-04T15:19:56.413Z,4.63
2022-08-04T15:22:25.012Z,4.70
2022-08-04T15:24:55.371Z,4.30
2022-08-04T15:27:27.849Z,4.70
2022-08-04T15:30:03.091Z,4.57
2022-08-04T15:32:38.056Z,4.35
2022-08-04T15:35:14.564Z,4.45
2022-08-04T15:38:09.652Z,3.78
2022-08-04T15:41:04.947Z,4.63
2022-08-04T15:43:55.728Z,4.60
2022-08-04T15:46:52.436Z,4.60
2022-08-04T15:49:21.958Z,4.53
2022-08-04T15:52:11.745Z,4.88
2022-08-04T15:54:42.357Z,4.68
2022-08-04T15:57:11.515Z,4.40
2022-08-04T16:00:14.479Z,4.82
2022-08-04T16:02:44.465Z,4.70
2022-08-04T16:05:18.382Z,4.50
2022-08-04T16:07:57.696Z,5.07
2022-08-04T16:10:31.063Z,4.80
2022-08-04T16:13:03.773Z,5.13
2022-08-04T16:15:55.381Z,5.03
2022-08-04T16:18:39.194Z,4.47
2022-08-04T16:21:18.548Z,4.70
2022-08-04T16:24:06.068Z,4.47
2022-08-04T16:26:45.440Z,4.50
2022-08-04T16:29:28.163Z,4.40
2022-08-04T16:32:17.018Z,4.80
2022-08-04T16:35:00.181Z,4.65
2022-08-04T16:37:34.252Z,5.13
2022-08-04T16:40:37.175Z,4.72
2022-08-04T16:43:21.141Z,5.20
2022-08-04T16:45:59.166Z,4.88
2022-08-04T16:48:34.955Z,5.07
2022-08-04T16:51:08.256Z,5.50
2022-08-04T16:53:52.781Z,5.05
2022-08-04T16:56:30.260Z,5.03
2022-08-04T16:59:07.831Z,5.28
2022-08-04T17:01:39.250Z,5.43
2022-08-04T17:04:08.473Z,5.50
2022-08-04T17:06:38.915Z,5.13
2022-08-04T17:09:17.357Z,5.30
2022-08-04T17:11:46.556Z,5.65
2022-08-04T17:14:21.694Z,5.30
2022-08-04T17:16:49.186Z,5.35
2022-08-04T17:19:24.126Z,5.15
2022-08-04T17:22:02.851Z,5.20
2022-08-04T17:24:33.176Z,5.35
2022-08-04T17:27:01.178Z,5.20
2022-08-04T17:29:43.602Z,5.38
2022-08-04T17:32:18.407Z,5.63
2022-08-04T17:34:57.379Z,5.55
2022-08-04T17:37:40.816Z,5.45
2022-08-04T17:40:22.615Z,5.22
2022-08-04T17:44:03.150Z,5.47
2022-08-04T17:46:29.161Z,4.95
2022-08-04T17:49:01.367Z,5.50
2022-08-04T17:52:04.047Z,5.57
2022-08-04T17:54:39.947Z,5.20
2022-08-04T17:57:21.070Z,5.18
2022-08-04T17:59:59.858Z,5.43
2022-08-04T18:02:34.710Z,5.78
2022-08-04T18:05:07.752Z,5.10
2022-08-04T18:08:41.354Z,5.60
2022-08-04T18:10:54.717Z,6.18
2022-08-04T18:13:28.624Z,5.53
2022-08-04T18:16:05.024Z,5.38
2022-08-04T18:18:33.508Z,6.15
2022-08-04T18:23:50.986Z,5.53
2022-08-04T18:26:23.941Z,5.53
2022-08-04T18:28:51.928Z,5.28
2022-08-04T18:31:19.441Z,5.32
2022-08-04T18:33:59.004Z,5.47
2022-08-04T18:36:32.978Z,5.03
2022-08-04T18:39:12.721Z,5.40
2022-08-04T18:42:00.828Z,5.85
2022-08-04T18:44:31.500Z,5.30
2022-08-04T18:47:19.138Z,5.07
2022-08-04T18:51:01.290Z,5.32
2022-08-04T18:52:35.548Z,5.50
2022-08-04T18:55:13.346Z,5.10
2022-08-04T18:58:07.350Z,5.75
2022-08-04T19:00:39.069Z,4.97
2022-08-04T19:03:16.538Z,4.88
2022-08-04T19:05:51.613Z,5.25
2022-08-04T19:08:34.538Z,4.82
2022-08-04T19:11:38.550Z,5.30
2022-08-04T19:13:58.347Z,5.03
2022-08-04T19:16:28.726Z,4.65
2022-08-04T19:18:57.441Z,5.10
2022-08-04T19:22:00.074Z,5.82
2022-08-04T19:24:31.106Z,5.20
2022-08-04T19:27:08.302Z,5.65
2022-08-04T19:29:41.106Z,5.40
2022-08-04T19:32:14.766Z,5.78
2022-08-04T19:34:46.268Z,5.20
2022-08-04T19:37:57.627Z,5.50
2022-08-04T19:40:10.261Z,5.20
2022-08-04T19:42:40.454Z,5.30
2022-08-04T19:45:09.737Z,5.20
2022-08-04T19:48:11.536Z,4.75
2022-08-04T19:50:33.025Z,5.40
2022-08-04T19:53:00.971Z,5.22
2022-08-04T19:55:37.812Z,4.95
2022-08-04T19:58:08.273Z,4.95
2022-08-04T20:00:44.607Z,5.15
2022-08-04T20:03:22.721Z,5.22
2022-08-04T20:06:10.080Z,5.07
2022-08-04T20:08:37.325Z,5.22
2022-08-04T20:11:18.506Z,5.07
2022-08-04T20:19:14.032Z,5.13
2022-08-04T20:21:54.849Z,5.28
2022-08-04T20:27:15.027Z,5.68
2022-08-04T20:29:49.855Z,5.00
2022-08-04T20:32:19.809Z,5.47
2022-08-04T20:34:48.692Z,5.22
2022-08-04T20:37:16.417Z,5.20
2022-08-04T20:39:44.242Z,4.60
2022-08-04T20:42:12.384Z,5.03
2022-08-04T20:44:42.135Z,5.18
2022-08-04T20:47:14.035Z,4.93
2022-08-04T20:49:42.771Z,4.63
2022-08-04T20:52:16.437Z,5.20
2022-08-04T20:54:48.394Z,5.20
2022-08-04T20:57:16.861Z,4.65
2022-08-04T20:59:59.904Z,5.28
2022-08-04T21:02:29.119Z,4.70
2022-08-04T21:04:56.374Z,4.97
2022-08-04T21:07:25.219Z,4.57
2022-08-04T21:09:52.894Z,4.50
2022-08-04T21:12:27.672Z,4.47
2022-08-04T21:15:13.723Z,4.38
2022-08-04T21:17:56.474Z,4.35
2022-08-04T21:20:27.272Z,4.53
2022-08-04T21:25:22.458Z,4.53
2022-08-04T21:27:49.847Z,4.10
2022-08-04T21:30:25.137Z,4.90
2022-08-04T21:32:54.990Z,4.85
2022-08-04T21:35:37.183Z,4.10
2022-08-04T21:38:17.607Z,4.35
2022-08-04T21:40:53.465Z,5.25
2022-08-04T21:43:23.619Z,5.20
2022-08-04T21:45:55.728Z,4.88
2022-08-04T21:48:27.254Z,4.35
2022-08-04T21:50:55.409Z,4.43
2022-08-04T21:53:24.443Z,4.13
2022-08-04T21:56:05.679Z,4.32
2022-08-04T21:58:35.171Z,4.10
2022-08-04T22:01:05.973Z,3.97
2022-08-04T22:03:53.168Z,3.83
2022-08-04T22:06:28.279Z,4.05
2022-08-04T22:08:57.449Z,4.82
2022-08-04T22:11:48.538Z,4.07
2022-08-04T22:14:17.341Z,3.90
2022-08-04T22:16:56.667Z,4.10
2022-08-04T22:19:39.613Z,4.18
2022-08-04T22:22:09.456Z,3.92
2022-08-04T22:24:39.725Z,4.25
2022-08-04T22:27:11.669Z,3.92
2022-08-04T22:29:39.261Z,3.95
2022-08-04T22:32:07.255Z,4.00
2022-08-04T22:34:45.402Z,4.10
2022-08-04T22:37:12.878Z,4.40
2022-08-04T22:39:56.167Z,4.35
2022-08-04T22:42:24.133Z,4.30
2022-08-04T22:44:52.460Z,4.20
2022-08-04T22:47:20.689Z,4.25
2022-08-04T22:49:56.569Z,3.90
2022-08-04T22:52:55.907Z,4.10
2022-08-04T22:55:23.447Z,4.10
2022-08-04T22:58:04.876Z,3.92
2022-08-04T23:00:36.159Z,4.10
2022-08-04T23:03:10.011Z,4.20
2022-08-04T23:05:54.255Z,4.15
2022-08-04T23:08:21.349Z,4.15
2022-08-04T23:10:55.699Z,4.53
2022-08-04T23:13:23.017Z,4.25
2022-08-04T23:15:50.590Z,4.25
2022-08-04T23:18:20.308Z,3.97
2022-08-04T23:20:47.749Z,4.35
2022-08-04T23:23:19.804Z,4.05
2022-08-04T23:26:07.329Z,4.13
2022-08-04T23:28:34.132Z,4.00
2022-08-04T23:31:03.174Z,3.88
2022-08-04T23:33:51.033Z,3.97
2022-08-04T23:36:17.946Z,3.88
2022-08-04T23:38:44.898Z,4.38
2022-08-04T23:41:17.259Z,4.28
2022-08-04T23:43:55.521Z,4.22
2022-08-04T23:46:23.523Z,4.63
2022-08-04T23:48:52.225Z,4.22
2022-08-04T23:51:20.127Z,4.00
2022-08-04T23:54:03.514Z,4.75
2022-08-04T23:56:33.072Z,4.13
